Time,TemperatureF,DewpointF,PressureIn,WindDirection,WindDirectionDegrees,WindSpeedMPH,WindSpeedGustMPH,Humidity,HourlyPrecipIn,Conditions,Clouds,dailyrainin,SoftwareType,DateUTC
2013-04-09 00:02:00,43.3,40.6,30.30,North,-999,0.0,0.0,90,0.01,,,0.00,pywws,2013-04-09 07:02:00,
2013-04-09 00:07:00,43.5,40.8,30.30,SE,135,0.7,0.7,90,0.01,,,0.00,pywws,2013-04-09 07:07:00,
2013-04-09 00:12:00,43.2,40.4,30.31,North,-999,0.0,0.0,90,0.01,,,0.00,pywws,2013-04-09 07:12:00,
2013-04-09 00:17:00,43.0,40.3,30.31,North,-999,0.0,0.0,90,0.01,,,0.00,pywws,2013-04-09 07:17:00,
2013-04-09 00:22:00,43.0,40.3,30.31,North,-999,0.0,0.0,90,0.01,,,0.00,pywws,2013-04-09 07:22:00,
2013-04-09 00:27:00,43.2,40.4,30.31,North,-999,0.0,0.0,90,0.01,,,0.00,pywws,2013-04-09 07:27:00,
2013-04-09 00:32:00,43.0,40.3,30.31,North,-999,0.0,0.0,90,0.00,,,0.00,pywws,2013-04-09 07:32:00,
2013-04-09 00:37:00,43.0,40.3,30.31,North,-999,0.0,0.0,90,0.00,,,0.00,pywws,2013-04-09 07:37:00,
2013-04-09 00:42:00,42.8,40.1,30.32,North,-999,0.0,0.0,90,0.00,,,0.00,pywws,2013-04-09 07:42:00,
2013-04-09 00:47:00,42.8,40.1,30.32,North,-999,0.0,0.0,90,0.00,,,0.00,pywws,2013-04-09 07:47:00,
2013-04-09 00:52:00,42.8,40.1,30.32,North,-999,0.0,0.0,90,0.00,,,0.00,pywws,2013-04-09 07:52:00,
2013-04-09 00:57:00,42.8,40.1,30.32,North,-999,0.0,0.0,90,0.00,,,0.00,pywws,2013-04-09 07:57:00,
2013-04-09 01:02:00,42.8,40.1,30.32,North,-999,0.0,0.0,90,0.00,,,0.00,pywws,2013-04-09 08:02:00,
2013-04-09 01:07:00,42.8,40.1,30.32,North,-999,0.0,0.0,90,0.00,,,0.00,pywws,2013-04-09 08:07:00,
2013-04-09 01:12:00,42.8,40.1,30.32,North,-999,0.0,0.0,90,0.00,,,0.00,pywws,2013-04-09 08:12:00,
2013-04-09 01:17:00,42.8,40.1,30.32,North,-999,0.0,0.0,90,0.00,,,0.00,pywws,2013-04-09 08:17:00,
2013-04-09 01:22:00,42.8,40.1,30.32,North,-999,0.0,0.0,90,0.00,,,0.00,pywws,2013-04-09 08:22:00,
2013-04-09 01:27:00,43.0,40.3,30.32,South,180,0.7,1.6,90,0.00,,,0.00,pywws,2013-04-09 08:27:00,
2013-04-09 01:32:00,43.2,40.4,30.32,North,-999,0.0,0.0,90,0.00,,,0.00,pywws,2013-04-09 08:32:00,
2013-04-09 01:37:00,43.2,40.4,30.32,North,-999,0.0,0.0,90,0.00,,,0.00,pywws,2013-04-09 08:37:00,
2013-04-09 01:42:00,43.3,40.6,30.33,South,180,0.7,1.6,90,0.00,,,0.00,pywws,2013-04-09 08:42:00,
2013-04-09 01:47:00,43.3,40.3,30.33,East,90,0.7,1.6,89,0.00,,,0.00,pywws,2013-04-09 08:47:00,
2013-04-09 01:52:00,43.2,40.1,30.33,North,-999,0.0,0.0,89,0.00,,,0.00,pywws,2013-04-09 08:52:00,
2013-04-09 01:57:00,43.0,40.0,30.33,North,-999,0.0,0.0,89,0.00,,,0.00,pywws,2013-04-09 08:57:00,
2013-04-09 02:02:00,43.0,39.7,30.33,North,-999,0.0,0.0,88,0.00,,,0.00,pywws,2013-04-09 09:02:00,
2013-04-09 02:07:00,43.2,39.9,30.33,SE,135,0.7,1.6,88,0.00,,,0.00,pywws,2013-04-09 09:07:00,
2013-04-09 02:12:00,43.2,39.9,30.33,SE,135,0.7,1.6,88,0.00,,,0.00,pywws,2013-04-09 09:12:00,
2013-04-09 02:17:00,43.0,39.4,30.33,North,-999,0.0,0.0,87,0.00,,,0.00,pywws,2013-04-09 09:17:00,
2013-04-09 02:22:00,43.0,39.4,30.33,North,-999,0.0,0.0,87,0.00,,,0.00,pywws,2013-04-09 09:22:00,
2013-04-09 02:27:00,42.8,39.2,30.33,North,-999,0.0,0.0,87,0.00,,,0.00,pywws,2013-04-09 09:27:00,
2013-04-09 02:32:00,42.4,39.1,30.33,North,-999,0.0,0.0,88,0.00,,,0.00,pywws,2013-04-09 09:32:00,
2013-04-09 02:37:00,42.3,39.0,30.33,North,-999,0.0,0.0,88,0.00,,,0.00,pywws,2013-04-09 09:37:00,
2013-04-09 02:42:00,42.3,39.0,30.33,North,-999,0.0,0.0,88,0.00,,,0.00,pywws,2013-04-09 09:42:00,
2013-04-09 02:47:00,42.3,39.0,30.33,North,-999,0.0,0.0,88,0.00,,,0.00,pywws,2013-04-09 09:47:00,
2013-04-09 02:52:00,42.3,39.3,30.32,North,-999,0.0,0.0,89,0.00,,,0.00,pywws,2013-04-09 09:52:00,
2013-04-09 02:57:00,42.3,39.3,30.32,North,-999,0.0,0.0,89,0.00,,,0.00,pywws,2013-04-09 09:57:00,
2013-04-09 03:02:00,42.3,39.3,30.32,North,-999,0.0,0.0,89,0.00,,,0.00,pywws,2013-04-09 10:02:00,
2013-04-09 03:07:00,42.3,39.3,30.32,North,-999,0.0,0.0,89,0.00,,,0.00,pywws,2013-04-09 10:07:00,
2013-04-09 03:12:00,42.1,39.1,30.32,North,-999,0.0,0.7,89,0.00,,,0.00,pywws,2013-04-09 10:12:00,
2013-04-09 03:17:00,41.9,39.2,30.32,North,-999,0.0,0.0,90,0.00,,,0.00,pywws,2013-04-09 10:17:00,
2013-04-09 03:22:00,42.1,39.4,30.32,South,180,0.7,1.6,90,0.00,,,0.00,pywws,2013-04-09 10:22:00,
2013-04-09 03:27:00,42.1,39.4,30.32,South,180,1.6,2.2,90,0.00,,,0.00,pywws,2013-04-09 10:27:00,
2013-04-09 03:32:00,42.1,39.4,30.32,South,180,1.6,2.2,90,0.00,,,0.00,pywws,2013-04-09 10:32:00,
2013-04-09 03:37:00,42.1,39.4,30.33,South,180,1.6,2.2,90,0.00,,,0.00,pywws,2013-04-09 10:37:00,
2013-04-09 03:42:00,42.1,39.4,30.32,South,180,0.7,1.6,90,0.00,,,0.00,pywws,2013-04-09 10:42:00,
2013-04-09 03:47:00,42.3,39.5,30.33,North,-999,0.0,1.6,90,0.00,,,0.00,pywws,2013-04-09 10:47:00,
2013-04-09 03:52:00,42.4,39.7,30.33,North,-999,0.0,0.0,90,0.00,,,0.00,pywws,2013-04-09 10:52:00,
2013-04-09 03:57:00,42.4,40.0,30.34,North,-999,0.0,0.0,91,0.00,,,0.00,pywws,2013-04-09 10:57:00,
2013-04-09 04:02:00,42.4,40.0,30.34,North,-999,0.0,0.0,91,0.00,,,0.00,pywws,2013-04-09 11:02:00,
2013-04-09 04:07:00,42.4,40.0,30.34,South,180,0.7,2.2,91,0.00,,,0.00,pywws,2013-04-09 11:07:00,
2013-04-09 04:12:00,42.6,39.9,30.34,North,-999,0.0,0.0,90,0.00,,,0.00,pywws,2013-04-09 11:12:00,
2013-04-09 04:17:00,42.6,39.9,30.34,North,-999,0.0,0.0,90,0.00,,,0.00,pywws,2013-04-09 11:17:00,
2013-04-09 04:22:00,42.6,39.9,30.34,South,180,0.7,1.6,90,0.00,,,0.00,pywws,2013-04-09 11:22:00,
2013-04-09 04:27:00,42.6,39.9,30.34,North,-999,0.0,0.7,90,0.00,,,0.00,pywws,2013-04-09 11:27:00,
2013-04-09 04:32:00,42.4,39.7,30.34,North,-999,0.0,0.0,90,0.00,,,0.00,pywws,2013-04-09 11:32:00,
2013-04-09 04:37:00,42.4,39.4,30.35,North,-999,0.0,0.0,89,0.00,,,0.00,pywws,2013-04-09 11:37:00,
2013-04-09 04:42:00,42.4,39.4,30.35,South,180,0.7,1.6,89,0.00,,,0.00,pywws,2013-04-09 11:42:00,
2013-04-09 04:47:00,42.4,39.4,30.35,South,180,0.7,1.6,89,0.00,,,0.00,pywws,2013-04-09 11:47:00,
2013-04-09 04:52:00,42.3,39.3,30.35,North,-999,0.0,0.0,89,0.00,,,0.00,pywws,2013-04-09 11:52:00,
2013-04-09 04:57:00,42.3,39.3,30.35,North,-999,0.0,1.6,89,0.00,,,0.00,pywws,2013-04-09 11:57:00,
2013-04-09 05:02:00,42.4,39.4,30.35,North,-999,0.0,0.0,89,0.00,,,0.00,pywws,2013-04-09 12:02:00,
2013-04-09 05:07:00,42.3,39.3,30.35,South,180,0.7,1.6,89,0.00,,,0.00,pywws,2013-04-09 12:07:00,
2013-04-09 05:12:00,42.4,39.4,30.35,North,-999,0.0,0.0,89,0.00,,,0.00,pywws,2013-04-09 12:12:00,
2013-04-09 05:17:00,42.4,39.1,30.35,North,-999,0.0,0.0,88,0.00,,,0.00,pywws,2013-04-09 12:17:00,
2013-04-09 05:22:00,42.4,39.1,30.35,North,-999,0.0,0.7,88,0.00,,,0.00,pywws,2013-04-09 12:22:00,
2013-04-09 05:27:00,42.4,39.1,30.35,North,-999,0.0,0.0,88,0.00,,,0.00,pywws,2013-04-09 12:27:00,
2013-04-09 05:32:00,42.1,38.8,30.35,North,-999,0.0,0.0,88,0.00,,,0.00,pywws,2013-04-09 12:32:00,
2013-04-09 05:37:00,41.9,38.6,30.34,South,180,0.7,2.2,88,0.00,,,0.00,pywws,2013-04-09 12:37:00,
2013-04-09 05:42:00,41.9,38.6,30.34,North,-999,0.0,0.0,88,0.00,,,0.00,pywws,2013-04-09 12:42:00,
2013-04-09 05:47:00,41.7,38.4,30.35,North,-999,0.0,0.0,88,0.00,,,0.00,pywws,2013-04-09 12:47:00,
2013-04-09 05:52:00,41.5,38.3,30.34,North,-999,0.0,0.0,88,0.00,,,0.00,pywws,2013-04-09 12:52:00,
2013-04-09 05:57:00,41.5,38.3,30.34,North,-999,0.0,0.0,88,0.00,,,0.00,pywws,2013-04-09 12:57:00,
2013-04-09 06:02:00,41.5,38.3,30.34,North,-999,0.0,0.0,88,0.00,,,0.00,pywws,2013-04-09 13:02:00,
2013-04-09 06:07:00,41.4,38.1,30.34,North,-999,0.0,0.0,88,0.00,,,0.00,pywws,2013-04-09 13:07:00,
2013-04-09 06:12:00,41.2,37.9,30.34,North,-999,0.0,0.0,88,0.00,,,0.00,pywws,2013-04-09 13:12:00,
2013-04-09 06:17:00,41.2,37.9,30.35,North,-999,0.0,0.0,88,0.00,,,0.00,pywws,2013-04-09 13:17:00,
2013-04-09 06:22:00,41.2,37.9,30.34,North,-999,0.0,0.0,88,0.00,,,0.00,pywws,2013-04-09 13:22:00,
2013-04-09 06:27:00,41.2,37.9,30.34,North,-999,0.0,0.0,88,0.00,,,0.00,pywws,2013-04-09 13:27:00,
2013-04-09 06:32:00,41.2,37.9,30.34,North,-999,0.0,0.0,88,0.00,,,0.00,pywws,2013-04-09 13:32:00,
2013-04-09 06:37:00,41.2,37.9,30.34,North,-999,0.0,0.0,88,0.00,,,0.00,pywws,2013-04-09 13:37:00,
2013-04-09 06:42:00,41.2,37.9,30.34,North,-999,0.0,0.0,88,0.00,,,0.00,pywws,2013-04-09 13:42:00,
2013-04-09 06:47:00,41.2,37.9,30.35,North,-999,0.0,0.0,88,0.00,,,0.00,pywws,2013-04-09 13:47:00,
2013-04-09 07:02:00,41.2,37.9,30.34,North,-999,0.0,0.0,88,0.00,,,0.00,pywws,2013-04-09 14:02:00,
2013-04-09 07:07:00,41.2,37.9,30.34,North,-999,0.0,0.0,88,0.00,,,0.00,pywws,2013-04-09 14:07:00,
2013-04-09 07:12:00,41.4,38.1,30.35,North,-999,0.0,0.0,88,0.00,,,0.00,pywws,2013-04-09 14:12:00,
2013-04-09 07:17:00,41.5,38.3,30.35,North,-999,0.0,0.0,88,0.00,,,0.00,pywws,2013-04-09 14:17:00,
2013-04-09 07:22:00,41.7,38.4,30.35,East,90,0.7,1.6,88,0.00,,,0.00,pywws,2013-04-09 14:22:00,
2013-04-09 07:27:00,42.1,38.8,30.35,North,-999,0.0,0.0,88,0.00,,,0.00,pywws,2013-04-09 14:27:00,
2013-04-09 07:32:00,42.3,39.0,30.35,North,-999,0.0,0.0,88,0.00,,,0.00,pywws,2013-04-09 14:32:00,
2013-04-09 07:37:00,42.4,39.1,30.36,North,-999,0.0,0.0,88,0.00,,,0.00,pywws,2013-04-09 14:37:00,
2013-04-09 07:42:00,42.3,39.0,30.36,North,-999,0.0,0.0,88,0.00,,,0.00,pywws,2013-04-09 14:42:00,
2013-04-09 07:47:00,42.4,39.1,30.35,North,-999,0.0,0.0,88,0.00,,,0.00,pywws,2013-04-09 14:47:00,
2013-04-09 08:02:00,42.6,39.3,30.36,North,-999,0.0,0.0,88,0.00,,,0.00,pywws,2013-04-09 15:02:00,
2013-04-09 08:07:00,43.0,39.1,30.35,North,-999,0.0,0.0,86,0.00,,,0.00,pywws,2013-04-09 15:07:00,
2013-04-09 08:12:00,43.3,39.4,30.35,North,-999,0.0,0.0,86,0.00,,,0.00,pywws,2013-04-09 15:12:00,
2013-04-09 08:17:00,43.3,39.4,30.35,North,-999,0.0,0.0,86,0.00,,,0.00,pywws,2013-04-09 15:17:00,
2013-04-09 08:22:00,43.5,39.6,30.35,North,-999,0.0,0.0,86,0.00,,,0.00,pywws,2013-04-09 15:22:00,
2013-04-09 08:27:00,43.7,39.8,30.35,North,-999,0.0,0.0,86,0.00,,,0.00,pywws,2013-04-09 15:27:00,
2013-04-09 08:32:00,44.1,40.1,30.35,North,-999,0.0,0.0,86,0.00,,,0.00,pywws,2013-04-09 15:32:00,
2013-04-09 08:37:00,44.2,40.3,30.35,North,-999,0.0,0.0,86,0.00,,,0.00,pywws,2013-04-09 15:37:00,
2013-04-09 08:42:00,44.6,40.4,30.35,North,-999,0.0,0.0,85,0.00,,,0.00,pywws,2013-04-09 15:42:00,
2013-04-09 08:47:00,44.8,40.6,30.35,North,-999,0.0,0.0,85,0.00,,,0.00,pywws,2013-04-09 15:47:00,
2013-04-09 09:02:00,44.8,40.6,30.35,North,-999,0.0,0.0,85,0.00,,,0.00,pywws,2013-04-09 16:02:00,
2013-04-09 09:07:00,44.8,40.2,30.35,North,-999,0.0,0.0,84,0.00,,,0.00,pywws,2013-04-09 16:07:00,
2013-04-09 09:12:00,44.8,40.2,30.34,North,-999,0.0,0.0,84,0.00,,,0.00,pywws,2013-04-09 16:12:00,
2013-04-09 09:17:00,45.0,40.4,30.34,North,-999,0.0,0.0,84,0.00,,,0.00,pywws,2013-04-09 16:17:00,
2013-04-09 09:22:00,45.3,40.8,30.35,North,-999,0.0,0.0,84,0.00,,,0.00,pywws,2013-04-09 16:22:00,
2013-04-09 09:27:00,45.5,41.0,30.35,North,-999,0.0,0.0,84,0.00,,,0.00,pywws,2013-04-09 16:27:00,
2013-04-09 09:32:00,45.7,41.1,30.35,North,-999,0.0,0.0,84,0.00,,,0.00,pywws,2013-04-09 16:32:00,
2013-04-09 09:37:00,46.2,41.7,30.34,North,-999,0.0,0.0,84,0.00,,,0.00,pywws,2013-04-09 16:37:00,
2013-04-09 09:42:00,46.8,42.5,30.35,East,90,0.7,1.6,85,0.00,,,0.00,pywws,2013-04-09 16:42:00,
2013-04-09 09:47:00,47.7,43.1,30.35,North,-999,0.0,0.0,84,0.00,,,0.00,pywws,2013-04-09 16:47:00,
2013-04-09 10:02:00,48.0,43.4,30.35,North,-999,0.0,0.0,84,0.00,,,0.00,pywws,2013-04-09 17:02:00,
2013-04-09 10:07:00,49.1,41.9,30.35,South,180,0.7,1.6,76,0.00,,,0.00,pywws,2013-04-09 17:07:00,
2013-04-09 10:12:00,49.3,42.4,30.36,North,-999,0.0,0.7,77,0.00,,,0.00,pywws,2013-04-09 17:12:00,
2013-04-09 10:17:00,49.5,42.2,30.35,North,-999,0.0,1.6,76,0.00,,,0.00,pywws,2013-04-09 17:17:00,
2013-04-09 10:22:00,50.0,42.4,30.36,South,180,0.7,2.2,75,0.00,,,0.00,pywws,2013-04-09 17:22:00,
2013-04-09 10:27:00,49.6,42.4,30.36,North,-999,0.0,0.0,76,0.00,,,0.00,pywws,2013-04-09 17:27:00,
2013-04-09 10:32:00,49.8,42.2,30.35,North,-999,0.0,1.6,75,0.00,,,0.00,pywws,2013-04-09 17:32:00,
2013-04-09 10:37:00,50.0,42.4,30.36,North,-999,0.0,0.0,75,0.00,,,0.00,pywws,2013-04-09 17:37:00,
2013-04-09 10:42:00,50.4,42.7,30.36,North,-999,0.0,0.0,75,0.00,,,0.00,pywws,2013-04-09 17:42:00,
2013-04-09 10:47:00,50.4,42.7,30.37,North,-999,0.0,0.0,75,0.00,,,0.00,pywws,2013-04-09 17:47:00,
2013-04-09 11:02:00,50.5,42.6,30.37,North,-999,0.0,0.0,74,0.00,,,0.00,pywws,2013-04-09 18:02:00,
2013-04-09 11:07:00,51.3,42.9,30.37,North,-999,0.0,0.0,73,0.00,,,0.00,pywws,2013-04-09 18:07:00,
2013-04-09 11:12:00,51.3,42.9,30.36,North,-999,0.0,0.0,73,0.00,,,0.00,pywws,2013-04-09 18:12:00,
2013-04-09 11:17:00,51.3,42.9,30.37,North,-999,0.0,0.0,73,0.00,,,0.00,pywws,2013-04-09 18:17:00,
2013-04-09 11:22:00,51.1,42.0,30.37,North,-999,0.0,0.0,71,0.00,,,0.00,pywws,2013-04-09 18:22:00,
2013-04-09 11:27:00,51.3,42.5,30.37,North,-999,0.0,0.0,72,0.00,,,0.00,pywws,2013-04-09 18:27:00,
2013-04-09 11:32:00,51.3,41.8,30.37,North,-999,0.0,0.0,70,0.00,,,0.00,pywws,2013-04-09 18:32:00,
2013-04-09 11:37:00,51.4,42.7,30.37,North,-999,0.0,0.0,72,0.00,,,0.00,pywws,2013-04-09 18:37:00,
2013-04-09 11:42:00,51.4,42.4,30.37,North,-999,0.0,0.0,71,0.00,,,0.00,pywws,2013-04-09 18:42:00,
2013-04-09 11:47:00,51.6,42.9,30.37,North,-999,0.0,0.0,72,0.00,,,0.00,pywws,2013-04-09 18:47:00,
2013-04-09 12:02:00,51.3,42.2,30.37,North,-999,0.0,0.0,71,0.00,,,0.00,pywws,2013-04-09 19:02:00,
2013-04-09 12:07:00,51.8,42.3,30.36,North,-999,0.0,0.0,70,0.00,,,0.00,pywws,2013-04-09 19:07:00,
2013-04-09 12:12:00,52.5,43.4,30.36,North,-999,0.0,1.6,71,0.00,,,0.00,pywws,2013-04-09 19:12:00,
2013-04-09 12:17:00,52.5,43.0,30.36,North,-999,0.0,1.6,70,0.00,,,0.00,pywws,2013-04-09 19:17:00,
2013-04-09 12:22:00,53.2,44.1,30.36,South,180,2.2,3.1,71,0.00,,,0.00,pywws,2013-04-09 19:22:00,
2013-04-09 12:27:00,52.9,42.6,30.35,North,-999,0.0,0.0,68,0.00,,,0.00,pywws,2013-04-09 19:27:00,
2013-04-09 12:32:00,53.8,43.9,30.36,South,180,1.6,3.1,69,0.00,,,0.00,pywws,2013-04-09 19:32:00,
2013-04-09 12:37:00,53.8,42.3,30.36,West,270,0.7,2.2,65,0.00,,,0.00,pywws,2013-04-09 19:37:00,
2013-04-09 12:42:00,53.6,42.1,30.36,West,270,0.7,1.6,65,0.00,,,0.00,pywws,2013-04-09 19:42:00,
2013-04-09 12:47:00,53.2,41.8,30.36,North,-999,0.0,0.7,65,0.00,,,0.00,pywws,2013-04-09 19:47:00,
2013-04-09 13:02:00,53.2,42.2,30.36,North,-999,0.0,0.7,66,0.00,,,0.00,pywws,2013-04-09 20:02:00,
2013-04-09 13:07:00,53.4,41.6,30.35,South,180,0.7,1.6,64,0.00,,,0.00,pywws,2013-04-09 20:07:00,
2013-04-09 13:12:00,53.2,41.0,30.36,North,-999,0.0,0.0,63,0.00,,,0.00,pywws,2013-04-09 20:12:00,
2013-04-09 13:17:00,53.4,41.6,30.35,North,-999,0.0,0.0,64,0.00,,,0.00,pywws,2013-04-09 20:17:00,
2013-04-09 13:22:00,53.4,42.3,30.36,North,-999,0.0,0.0,66,0.00,,,0.00,pywws,2013-04-09 20:22:00,
2013-04-09 13:27:00,53.6,42.1,30.35,South,180,0.7,1.6,65,0.00,,,0.00,pywws,2013-04-09 20:27:00,
2013-04-09 13:32:00,53.2,41.4,30.35,North,-999,0.0,0.0,64,0.00,,,0.00,pywws,2013-04-09 20:32:00,
2013-04-09 13:37:00,52.9,41.0,30.35,North,-999,0.0,0.0,64,0.00,,,0.00,pywws,2013-04-09 20:37:00,
2013-04-09 13:42:00,52.7,41.3,30.35,North,-999,0.0,0.7,65,0.00,,,0.00,pywws,2013-04-09 20:42:00,
2013-04-09 13:47:00,52.9,41.8,30.35,North,-999,0.0,0.0,66,0.00,,,0.00,pywws,2013-04-09 20:47:00,
2013-04-09 14:02:00,53.1,42.0,30.35,West,270,0.7,2.2,66,0.00,,,0.00,pywws,2013-04-09 21:02:00,
2013-04-09 14:07:00,53.8,42.3,30.34,North,-999,0.0,0.7,65,0.00,,,0.00,pywws,2013-04-09 21:07:00,
2013-04-09 14:12:00,53.8,41.9,30.34,North,-999,0.0,0.0,64,0.00,,,0.00,pywws,2013-04-09 21:12:00,
2013-04-09 14:17:00,54.1,42.6,30.34,North,-999,0.0,0.0,65,0.00,,,0.00,pywws,2013-04-09 21:17:00,
2013-04-09 14:22:00,53.8,41.9,30.34,North,-999,0.0,0.0,64,0.00,,,0.00,pywws,2013-04-09 21:22:00,
2013-04-09 14:27:00,54.0,42.5,30.34,North,-999,0.0,0.0,65,0.00,,,0.00,pywws,2013-04-09 21:27:00,
2013-04-09 14:32:00,53.6,41.3,30.35,North,-999,0.0,0.0,63,0.00,,,0.00,pywws,2013-04-09 21:32:00,
2013-04-09 14:37:00,53.6,42.1,30.35,North,-999,0.0,0.0,65,0.00,,,0.00,pywws,2013-04-09 21:37:00,
2013-04-09 14:42:00,53.2,41.4,30.35,North,-999,0.0,0.0,64,0.00,,,0.00,pywws,2013-04-09 21:42:00,
2013-04-09 14:47:00,53.1,43.2,30.34,North,-999,0.0,0.0,69,0.00,,,0.00,pywws,2013-04-09 21:47:00,
2013-04-09 15:02:00,53.2,41.4,30.34,North,-999,0.0,0.0,64,0.00,,,0.00,pywws,2013-04-09 22:02:00,
2013-04-09 15:07:00,52.7,43.2,30.33,North,-999,0.0,0.7,70,0.00,,,0.00,pywws,2013-04-09 22:07:00,
2013-04-09 15:12:00,52.5,43.0,30.33,North,-999,0.0,0.0,70,0.00,,,0.00,pywws,2013-04-09 22:12:00,
2013-04-09 15:17:00,52.5,42.6,30.33,North,-999,0.0,0.0,69,0.00,,,0.00,pywws,2013-04-09 22:17:00,
2013-04-09 15:22:00,53.4,44.3,30.32,North,-999,0.0,0.0,71,0.00,,,0.00,pywws,2013-04-09 22:22:00,
2013-04-09 15:27:00,54.7,45.1,30.32,North,-999,0.0,0.0,70,0.00,,,0.00,pywws,2013-04-09 22:27:00,
2013-04-09 15:32:00,55.4,45.0,30.32,North,-999,0.0,0.0,68,0.00,,,0.00,pywws,2013-04-09 22:32:00,
2013-04-09 15:37:00,54.9,42.5,30.32,North,-999,0.0,0.0,63,0.00,,,0.00,pywws,2013-04-09 22:37:00,
2013-04-09 15:42:00,54.7,42.3,30.32,North,-999,0.0,0.0,63,0.00,,,0.00,pywws,2013-04-09 22:42:00,
2013-04-09 15:47:00,54.1,41.8,30.32,South,180,1.6,2.2,63,0.00,,,0.00,pywws,2013-04-09 22:47:00,
2013-04-09 16:02:00,54.0,42.5,30.32,North,-999,0.0,0.0,65,0.00,,,0.00,pywws,2013-04-09 23:02:00,
2013-04-09 16:07:00,52.7,43.2,30.31,North,-999,0.0,0.0,70,0.00,,,0.00,pywws,2013-04-09 23:07:00,
2013-04-09 16:12:00,52.7,43.9,30.31,North,-999,0.0,0.0,72,0.00,,,0.00,pywws,2013-04-09 23:12:00,
2013-04-09 16:17:00,52.9,44.1,30.31,North,-999,0.0,0.0,72,0.00,,,0.00,pywws,2013-04-09 23:17:00,
2013-04-09 16:22:00,53.1,44.3,30.31,North,-999,0.0,0.0,72,0.00,,,0.00,pywws,2013-04-09 23:22:00,
2013-04-09 16:27:00,52.9,44.1,30.31,North,-999,0.0,0.0,72,0.00,,,0.00,pywws,2013-04-09 23:27:00,
2013-04-09 16:32:00,52.9,43.7,30.31,North,-999,0.0,0.0,71,0.00,,,0.00,pywws,2013-04-09 23:32:00,
2013-04-09 16:37:00,53.1,44.3,30.31,North,-999,0.0,0.0,72,0.00,,,0.00,pywws,2013-04-09 23:37:00,
2013-04-09 16:42:00,52.9,44.5,30.32,North,-999,0.0,0.0,73,0.00,,,0.00,pywws,2013-04-09 23:42:00,
2013-04-09 16:47:00,52.9,44.1,30.31,North,-999,0.0,0.0,72,0.00,,,0.00,pywws,2013-04-09 23:47:00,
2013-04-09 16:52:00,52.9,44.5,30.31,North,-999,0.0,0.0,73,0.00,,,0.00,pywws,2013-04-09 23:52:00,
2013-04-09 17:02:00,52.5,44.1,30.31,North,-999,0.0,0.0,73,0.00,,,0.00,pywws,2013-04-10 00:02:00,
2013-04-09 17:03:00,52.7,44.3,30.31,North,-999,0.0,0.0,73,0.00,,,0.00,pywws,2013-04-10 00:03:00,
2013-04-09 17:07:00,52.5,43.8,30.31,North,-999,0.0,0.0,72,0.00,,,0.00,pywws,2013-04-10 00:07:00,
2013-04-09 17:12:00,52.5,44.1,30.31,North,-999,0.0,0.0,73,0.00,,,0.00,pywws,2013-04-10 00:12:00,
2013-04-09 17:17:00,52.7,44.3,30.31,North,-999,0.0,0.0,73,0.00,,,0.00,pywws,2013-04-10 00:17:00,
2013-04-09 17:22:00,52.3,43.9,30.31,North,-999,0.0,0.0,73,0.00,,,0.00,pywws,2013-04-10 00:22:00,
2013-04-09 17:27:00,52.0,43.6,30.32,North,-999,0.0,0.0,73,0.00,,,0.00,pywws,2013-04-10 00:27:00,
2013-04-09 17:32:00,51.8,43.4,30.32,North,-999,0.0,0.0,73,0.00,,,0.00,pywws,2013-04-10 00:32:00,
2013-04-09 17:37:00,51.6,43.6,30.31,East,90,1.6,3.1,74,0.00,,,0.00,pywws,2013-04-10 00:37:00,
2013-04-09 17:42:00,51.6,43.6,30.31,North,-999,0.0,0.0,74,0.00,,,0.00,pywws,2013-04-10 00:42:00,
2013-04-09 17:47:00,51.4,43.8,30.31,North,-999,0.0,0.0,75,0.00,,,0.00,pywws,2013-04-10 00:47:00,
2013-04-09 18:02:00,51.3,43.3,30.31,North,-999,0.0,0.0,74,0.00,,,0.00,pywws,2013-04-10 01:02:00,
2013-04-09 18:07:00,50.9,42.9,30.30,North,-999,0.0,0.0,74,0.00,,,0.00,pywws,2013-04-10 01:07:00,
2013-04-09 18:12:00,50.7,43.1,30.30,North,-999,0.0,0.0,75,0.00,,,0.00,pywws,2013-04-10 01:12:00,
2013-04-09 18:17:00,50.7,43.1,30.30,North,-999,0.0,0.0,75,0.00,,,0.00,pywws,2013-04-10 01:17:00,
2013-04-09 18:22:00,50.7,43.1,30.30,North,-999,0.0,0.0,75,0.00,,,0.00,pywws,2013-04-10 01:22:00,
2013-04-09 18:27:00,50.7,43.4,30.29,North,-999,0.0,0.0,76,0.00,,,0.00,pywws,2013-04-10 01:27:00,
2013-04-09 18:32:00,50.5,42.9,30.29,North,-999,0.0,0.0,75,0.00,,,0.00,pywws,2013-04-10 01:32:00,
2013-04-09 18:37:00,50.5,42.9,30.29,North,-999,0.0,0.0,75,0.00,,,0.00,pywws,2013-04-10 01:37:00,
2013-04-09 18:42:00,50.5,42.9,30.29,North,-999,0.0,0.0,75,0.00,,,0.00,pywws,2013-04-10 01:42:00,
2013-04-09 18:47:00,50.4,43.1,30.29,North,-999,0.0,0.0,76,0.00,,,0.00,pywws,2013-04-10 01:47:00,
2013-04-09 19:02:00,50.2,42.9,30.28,East,90,0.7,1.6,76,0.00,,,0.00,pywws,2013-04-10 02:02:00,
2013-04-09 19:07:00,50.2,42.9,30.28,North,-999,0.0,0.0,76,0.00,,,0.00,pywws,2013-04-10 02:07:00,
2013-04-09 19:12:00,50.0,43.1,30.27,North,-999,0.0,0.0,77,0.00,,,0.00,pywws,2013-04-10 02:12:00,
2013-04-09 19:17:00,50.0,43.1,30.27,North,-999,0.0,0.0,77,0.00,,,0.00,pywws,2013-04-10 02:17:00,
2013-04-09 19:22:00,50.0,42.7,30.27,East,90,0.7,0.7,76,0.00,,,0.00,pywws,2013-04-10 02:22:00,
2013-04-09 19:27:00,50.0,43.1,30.27,East,90,1.6,2.2,77,0.00,,,0.00,pywws,2013-04-10 02:27:00,
2013-04-09 19:32:00,50.2,42.9,30.27,East,90,1.6,2.2,76,0.00,,,0.00,pywws,2013-04-10 02:32:00,
2013-04-09 19:37:00,50.0,42.7,30.27,North,-999,0.0,0.0,76,0.00,,,0.00,pywws,2013-04-10 02:37:00,
2013-04-09 19:42:00,50.0,43.1,30.27,North,-999,0.0,0.0,77,0.00,,,0.00,pywws,2013-04-10 02:42:00,
2013-04-09 19:47:00,49.8,43.2,30.27,North,-999,0.0,0.0,78,0.00,,,0.00,pywws,2013-04-10 02:47:00,
2013-04-09 19:52:00,50.0,42.7,30.26,North,-999,0.0,0.7,76,0.00,,,0.00,pywws,2013-04-10 02:52:00,
2013-04-09 19:57:00,50.0,42.7,30.27,East,90,1.6,2.2,76,0.00,,,0.00,pywws,2013-04-10 02:57:00,
2013-04-09 20:02:00,49.8,43.2,30.27,North,-999,0.0,0.0,78,0.00,,,0.00,pywws,2013-04-10 03:02:00,
2013-04-09 20:07:00,49.6,43.1,30.27,North,-999,0.0,0.0,78,0.00,,,0.00,pywws,2013-04-10 03:07:00,
2013-04-09 20:12:00,49.6,43.1,30.27,North,-999,0.0,0.0,78,0.00,,,0.00,pywws,2013-04-10 03:12:00,
2013-04-09 20:17:00,49.3,43.0,30.27,North,-999,0.0,0.0,79,0.00,,,0.00,pywws,2013-04-10 03:17:00,
2013-04-09 20:22:00,49.6,43.4,30.27,East,90,0.7,1.6,79,0.00,,,0.00,pywws,2013-04-10 03:22:00,
2013-04-09 20:27:00,49.5,43.2,30.27,North,-999,0.0,0.0,79,0.00,,,0.00,pywws,2013-04-10 03:27:00,
2013-04-09 20:32:00,49.1,43.2,30.27,North,-999,0.0,0.0,80,0.00,,,0.00,pywws,2013-04-10 03:32:00,
2013-04-09 20:37:00,49.1,43.2,30.27,North,-999,0.0,0.0,80,0.00,,,0.00,pywws,2013-04-10 03:37:00,
2013-04-09 20:42:00,49.1,43.2,30.27,East,90,0.7,0.7,80,0.00,,,0.00,pywws,2013-04-10 03:42:00,
2013-04-09 20:47:00,49.1,43.2,30.27,North,-999,0.0,0.0,80,0.00,,,0.00,pywws,2013-04-10 03:47:00,
2013-04-09 20:52:00,49.1,43.2,30.27,North,-999,0.0,0.0,80,0.00,,,0.00,pywws,2013-04-10 03:52:00,
2013-04-09 20:57:00,49.1,43.2,30.27,North,-999,0.0,0.0,80,0.00,,,0.00,pywws,2013-04-10 03:57:00,
2013-04-09 21:02:00,49.3,43.4,30.26,North,-999,0.0,0.0,80,0.00,,,0.00,pywws,2013-04-10 04:02:00,
2013-04-09 21:07:00,49.5,43.2,30.27,North,-999,0.0,0.0,79,0.00,,,0.00,pywws,2013-04-10 04:07:00,
2013-04-09 21:12:00,49.5,43.2,30.26,North,-999,0.0,0.0,79,0.00,,,0.00,pywws,2013-04-10 04:12:00,
2013-04-09 21:17:00,49.5,43.2,30.26,North,-999,0.0,0.0,79,0.00,,,0.00,pywws,2013-04-10 04:17:00,
2013-04-09 21:22:00,49.3,43.0,30.25,North,-999,0.0,0.0,79,0.00,,,0.00,pywws,2013-04-10 04:22:00,
2013-04-09 21:27:00,49.5,43.2,30.26,North,-999,0.0,0.0,79,0.00,,,0.00,pywws,2013-04-10 04:27:00,
2013-04-09 21:32:00,49.3,43.0,30.25,North,-999,0.0,0.0,79,0.00,,,0.00,pywws,2013-04-10 04:32:00,
2013-04-09 21:37:00,49.5,43.2,30.26,North,-999,0.0,0.0,79,0.00,,,0.00,pywws,2013-04-10 04:37:00,
2013-04-09 21:42:00,49.5,43.2,30.26,North,-999,0.0,0.0,79,0.00,,,0.00,pywws,2013-04-10 04:42:00,
2013-04-09 21:47:00,49.5,43.2,30.26,North,-999,0.0,0.0,79,0.00,,,0.00,pywws,2013-04-10 04:47:00,
2013-04-09 21:52:00,49.6,43.4,30.26,North,-999,0.0,0.0,79,0.00,,,0.00,pywws,2013-04-10 04:52:00,
2013-04-09 21:57:00,49.5,43.2,30.26,North,-999,0.0,0.0,79,0.00,,,0.00,pywws,2013-04-10 04:57:00,
2013-04-09 22:02:00,49.6,43.4,30.26,North,-999,0.0,0.0,79,0.00,,,0.00,pywws,2013-04-10 05:02:00,
2013-04-09 22:07:00,49.5,43.2,30.26,South,180,0.7,1.6,79,0.00,,,0.00,pywws,2013-04-10 05:07:00,
2013-04-09 22:12:00,49.5,43.2,30.25,North,-999,0.0,1.6,79,0.00,,,0.00,pywws,2013-04-10 05:12:00,
2013-04-09 22:17:00,49.5,43.2,30.25,North,-999,0.0,2.2,79,0.00,,,0.00,pywws,2013-04-10 05:17:00,
2013-04-09 22:22:00,49.1,43.2,30.25,North,-999,0.0,0.0,80,0.00,,,0.00,pywws,2013-04-10 05:22:00,
2013-04-09 22:27:00,49.5,43.2,30.24,North,-999,0.0,0.0,79,0.00,,,0.00,pywws,2013-04-10 05:27:00,
2013-04-09 22:32:00,49.5,43.2,30.24,East,90,0.7,1.6,79,0.00,,,0.00,pywws,2013-04-10 05:32:00,
2013-04-09 22:37:00,49.8,43.6,30.23,East,90,1.6,3.8,79,0.00,,,0.00,pywws,2013-04-10 05:37:00,
2013-04-09 22:42:00,49.6,43.4,30.23,North,-999,0.0,0.0,79,0.00,,,0.00,pywws,2013-04-10 05:42:00,
2013-04-09 22:47:00,49.6,43.1,30.23,North,-999,0.0,0.0,78,0.00,,,0.00,pywws,2013-04-10 05:47:00,
2013-04-09 22:52:00,50.0,43.1,30.23,North,-999,0.0,0.7,77,0.00,,,0.00,pywws,2013-04-10 05:52:00,
2013-04-09 22:57:00,49.8,43.2,30.23,North,-999,0.0,0.0,78,0.00,,,0.00,pywws,2013-04-10 05:57:00,
2013-04-09 23:02:00,49.8,43.2,30.23,East,90,1.6,2.2,78,0.00,,,0.00,pywws,2013-04-10 06:02:00,
2013-04-09 23:07:00,50.0,42.7,30.23,North,-999,0.0,0.0,76,0.00,,,0.00,pywws,2013-04-10 06:07:00,
2013-04-09 23:12:00,49.8,43.2,30.23,North,-999,0.0,0.0,78,0.00,,,0.00,pywws,2013-04-10 06:12:00,
2013-04-09 23:17:00,49.6,43.1,30.23,North,-999,0.0,0.7,78,0.00,,,0.00,pywws,2013-04-10 06:17:00,
2013-04-09 23:22:00,49.6,43.1,30.24,North,-999,0.0,0.0,78,0.00,,,0.00,pywws,2013-04-10 06:22:00,
2013-04-09 23:27:00,49.5,42.9,30.23,North,-999,0.0,0.0,78,0.00,,,0.00,pywws,2013-04-10 06:27:00,
2013-04-09 23:32:00,49.5,42.9,30.23,North,-999,0.0,0.0,78,0.00,,,0.00,pywws,2013-04-10 06:32:00,
2013-04-09 23:37:00,49.5,42.9,30.23,North,-999,0.0,0.0,78,0.00,,,0.00,pywws,2013-04-10 06:37:00,
2013-04-09 23:42:00,49.6,43.1,30.22,North,-999,0.0,0.0,78,0.00,,,0.00,pywws,2013-04-10 06:42:00,
2013-04-09 23:47:00,49.6,43.1,30.22,North,-999,0.0,0.0,78,0.00,,,0.00,pywws,2013-04-10 06:47:00,
2013-04-09 23:52:00,49.6,43.1,30.22,South,180,0.7,1.6,78,0.00,,,0.00,pywws,2013-04-10 06:52:00,
2013-04-09 23:57:00,49.6,43.1,30.21,South,180,1.6,2.2,78,0.00,,,0.00,pywws,2013-04-10 06:57:00,